AREA preflight bulletin
Updated "live" 15 Dec 2018, 22:37

back to the map




METAR og TAF


NARSARSUAQ
  AKTUEL BGBW 152150Z 06003KT 9999 FEW140 SCT240 M07/M12 Q0990 RMK 1AC 4CC =
  TAF 9 timer BGBW 151701Z 1518/1524 07003KT 9999 SCT180=

QAQORTOQ
  AKTUEL BGJH 151750Z AUTO 36002KT //// ///////// M04/M08 Q0988=

PAAMIUT
  AKTUEL BGPT 152220Z AUTO 00000KT 9999NDV NCD M06/M07 Q0990=
  TAF 9 timer BGPT 151933Z 1519/1524 CNL=

NARSAQ
  AKTUEL BGNS 152220Z AUTO 04002KT //// ///////// M04/M06 Q0989=

NANORTALIK
  AKTUEL BGNN 152220Z AUTO 03008KT //// ///////// M01/M03 Q0989=

NUUK
  AKTUEL BGGH 152150Z 06008KT 9999 FEW007 M05/M06 Q0990=
  TAF 9 timer BGGH 151401Z 1515/1521 14008KT 9999 FEW020 SCT045 PROB40 1515/1521 VRB05KT BKN020=

KANGERLUSSUAQ
  AKTUEL BGSF 152220Z AUTO 06005KT 9999NDV NCD M23/M25 Q0993=
  TAF 24 timer BGSF 151100Z 1512/1524 06007KT 9999 FEW100=


SIGMETS:

SONDRESTROM FIR
  SIGMET BGGL SIGMET 2 VALID 152005/160005 BGSF- BGGL NUUK FIR SEV TURB FCST AT 2005Z WI N6928 W02303 - N6949 W02403 - N7027 W02217 - N7045 W02216 - N7045 W02116 - N7001 W02141 - N6928 W02303 SFC/FL130 STNR WKN=

SNOWTAM:

ICAO
BGBW (NARSARSUAQ)

valid from:
1812151315

Notam_id:
0053

SNOWTAM 0053 A) BGBW B) 12151315 C) 06 F) 3/3/3 G) 1/1/1 H) 5/5/5 N) 3/GOOD R) 3/GOOD T) RWY TWYS AND APRON CONTAMINATION 100 PERCENT 1MM RIME - MEASURED FRICTION COEFFICIENTS 45/45/45 TAP


ICAO
BGPT (PAAMIUT)

valid from:
1812151402

Notam_id:
0067

SNOWTAM 0067 A) BGPT B) 12151402 C) 17 F) 7/7/7 G) 1/1/1 H) 5/3/3 N) 37/MEDIUM R) 37/MEDIUM T) RWY CONTAMINATION 100 PERCENT 1MM ICE - TWY AND APRON 100 PERCENT 2MM RIME AND 100 PERCENT 1MM ICE. MEASURED FRICTION COEFFICIENTS RWY17 44/35/35 TAP. SWEEPING IN PROGRESS.


ICAO
BGGH (NUUK)

valid from:
1812152150

Notam_id:
0256

SNOWTAM 0256 A) BGGH B) 12152150 C) 05 F) 13/13/13 G) 1/1/1 H) 3/3/3 N) 378/POOR R) 38/POOR T) RWY CONTAMINATION 50 PERCENT DAMP AND 100 PERCENT RIME - MEASURED FRICTION COEFFICIENT 34/32/31 SKH


ICAO
BGSF (KANGERLUSSUAQ)

valid from:
1812152140

Notam_id:
0138

SNOWTAM 0138 A) BGSF B) 12152140 C) 09 F) NIL/NIL/3 H) 5/5/5 N) A/8/GOOD B/4/GOOD C D/48/GOOD R) N/8/GOOD E/48/GOOD W/487/MEDIUM HELIPAD/48/POOR T) MEASURED FRICTION COEFFICIENTS 71/82/86 TAP, RWY CONTAMINATION RIME OR FROST COVERED



NOTAM/SNOWTAM for operationel use has to be confirmed with the
nearest AIS Briefing Office prior to a flight.

ICAO
BGBW (NARSARSUAQ)

FIR
BGGL

Notam_id:
BGA0585/18

valid from:
1811161022

E) REF AD-2 RNAV (GNSS) Y RWY 06-1 DUE TO TERRAIN WARNING REPORTS ON FINAL, LNAV OCA(H) INCREASED. CAT A INCREASED TO 1800(1688) FT FOR ALL CLIMB GRADIENTS. CAT B INCREASED TO 1800(1688) FT FOR ALL CLIMB GRADIENTS. CAT C INCREASED TO 1800(1688) FT FOR ALL CLIMB GRADIENTS.

valid to:
1812171800EST


Replacing:
BGA0521/18

ICAO
BGBW (NARSARSUAQ)

FIR
BGGL

Notam_id:
BGA0586/18

valid from:
1811161023

E) REF AD-2 RNAV (GNSS) Z RWY 06-1 DUE TO TERRAIN WARNING REPORTS ON FINAL, LNAV OCA(H) INCREASED. CAT A INCREASED TO 1800(1688) FT FOR ALL CLIMB GRADIENTS. CAT B INCREASED TO 1800(1688) FT FOR ALL CLIMB GRADIENTS.

valid to:
1812171800EST


Replacing:
BGA0522/18

ICAO
BGBW (NARSARSUAQ)

FIR
BGGL

Notam_id:
BGA0538/18

valid from:
1810161807

E) SEA RESCUE SERVICE NOT AVAILABLE DUE TO ICE.

valid to:
1905311900




ICAO
BGBW (NARSARSUAQ)

FIR
BGGL

Notam_id:
BGA0635/18

valid from:
1901310000

E) TRIGGER NOTAM - PERM AIP AIRAC AMDT 01/19 WEF 31 JAN 2019. DE-ICING FACILITIES WITHDRAWN. LNAV OCA (H) CHANGED ON CHARTS RNAV (GNSS) Z RWY 06 - 1 AND RNAV (GNSS) Y RWY 06 - 1.

valid to:
1902132359




ICAO
BGBW (NARSARSUAQ)

FIR
BGGL

Notam_id:
BGA0543/18

valid from:
1812060000

E) TRIGGER NOTAM - PERM AIP AIRAC AMDT 10/18 WEF 06 DEC 2018. CHANGES IN METEOROLOGICAL OBSERVATIONS AND REPORTS. PWS ADDED ON ADC.

valid to:
1812192359




ICAO
BGPT (PAAMIUT)

FIR
BGGL

Notam_id:
BGB0941/18

valid from:
1812131747

E) JET A-1 LIMITIED QUANTITY AVAILABLE. FUEL RESERVED FOR SAR AND MEDEVAC. PLEASE CONTACT AD BEFORE FLIGHT FOR ACTUAL AVAILABILITY.

valid to:
1812181800EST




ICAO
BGGL (SONDRESTROM FIR)

FIR
BGGL

Notam_id:
BGA0637/18

valid from:
1812141634

E) NUUK INFORMATION FREQ 121.300 MHZ PSN 610830N0482218W (ARSUUTAA) TRANSMITTER U/S.

valid to:
1812211900




ICAO
BGGL (SONDRESTROM FIR)

FIR
BGGL

Notam_id:
BGA0619/18

valid from:
1812010606

E) CHECKLIST YEAR=2017 0269 YEAR=2018 0199 0445 0538 0542 0543 0572 0585 0586 0611 0615 0616 0617 0618 LATEST PUBLICATIONS AIP AIRAC AMDT IFR 010/2018 EFFECTIVE DATE 06 DEC 18 AIP AMDT IFR 003/2018 EFFECTIVE DATE 15 MAR 18 AIP SUP IFR 006/2018 EFFECTIVE DATE 18 JUN 18 AIC IFR A003/2018 EFFECTIVE DATE 29 AUG 18

valid to:
1901010606EST


Replacing:
BGA0554/18

ICAO
BGGL (SONDRESTROM FIR)

FIR
BGGL

Notam_id:
BGB0899/18

valid from:
1812010607

E) CHECKLIST YEAR=2017 0740 0930 YEAR=2018 0631 0786 0806 0808 0811 0855 0857 0875 0876 0877 0888 LATEST PUBLICATIONS AIP AIRAC AMDT IFR 010/2018 EFFECTIVE DATE 06 DEC 18 AIP AMDT IFR 003/2018 EFFECTIVE DATE 15 MAR 18 AIP SUP IFR 006/2018 EFFECTIVE DATE 18 JUN 18 AIC IFR A003/2018 EFFECTIVE DATE 29 AUG 18

valid to:
1901010607EST


Replacing:
BGB0856/18

ICAO
BGGL (SONDRESTROM FIR)

FIR
BGGL

Notam_id:
BGC0070/18

valid from:
1812010608

E) CHECKLIST YEAR=2018 0069 LATEST PUBLICATIONS AIP AIRAC AMDT IFR 010/2018 EFFECTIVE DATE 06 DEC 18 AIP AMDT IFR 003/2018 EFFECTIVE DATE 15 MAR 18 AIP SUP IFR 006/2018 EFFECTIVE DATE 18 JUN 18 AIC IFR A003/2018 EFFECTIVE DATE 29 AUG 18

valid to:
1901010608EST


Replacing:
BGC0068/18

ICAO
BGGL (SONDRESTROM FIR)

FIR
BGGL

Notam_id:
BGB0950/18

valid from:
1812151200

E) THE FIRING EXERCISES TAKES PLACE NEAR COOK ISLAND BY NUUK. AREA BOUNDED BY: 6402N05233W 6402N05318W 6342N05318W 6342N05233W F) SFC G) 6500FT AGL

valid to:
1812160000




ICAO
BGGL (SONDRESTROM FIR)

FIR
BGGL

Notam_id:
BGA0625/18

valid from:
1812071341

E) NUUK INFORMATION FRQ 5526 KHZ PSN 6534N03707E (KULUSUK) OUT OF SERVICE

valid to:
1902071000




ICAO
BGGL (SONDRESTROM FIR)

FIR
BGGL

Notam_id:
BGA0572/18

valid from:
1901030000

E) AIP AIRAC AMDT EFFECTIVE DATE 03 JAN 2019: NIL

valid to:
1901162359




ICAO
BGGL (SONDRESTROM FIR)

FIR
BGGL

Notam_id:
BGB0942/18

valid from:
1901020700

D) DAILY 0700-1200


E) DUE TO LAUNCHING OF SCIENTIFIC ROCKET IN NORWAY, DEBRIS IS EXPECTED. TEMPORARY DANGER AREA ACTIVATED WITHIN BGGL FIR, LATERAL LIMITS: 880000N0300000E 820000N0300000E 820000N0000000E 813000N0000000E 813911N0023738W 834819N0171645W 862956N0234132W 881105N0241616E. F) SFC G) FL195

valid to:
1901171200




ICAO
BGGL (SONDRESTROM FIR)

FIR
BGGL

Notam_id:
BGA0633/18

valid from:
1901310000

E) TRIGGER NOTAM - PERM AIP AIRAC AMDT 01/19 WEF 31 JAN 2019. MAGNETIC BEARING UPDATED ON ATS ROUTES W21, W22, W23, W24, W25,W26, W27, W28, W29, W30, W31, W36, W37, W47, W51, W57, W60 AND W65.

valid to:
1902132359




ICAO
BGGL (SONDRESTROM FIR)

FIR
BGGL

Notam_id:
BGA0542/18

valid from:
1812060000

E) TRIGGER NOTAM - PERM AIP AIRAC AMDT 10/18 WEF 06 DEC 2018. SUNRISE/SUNSET TABLES UPDATED.

valid to:
1812192359




ICAO
BGGL (SONDRESTROM FIR)

FIR
BGGL

Notam_id:
BGA0199/18

valid from:
1805310935

E) GREENLAND AND ADJACENT WATERS ARE CONSIDERED HOSTILE AREAS BY THE CIVIL AVIATION AUTHORITY (TBST). THREE MAJOR REASONS CONTRIBUTE TO DEFINING THE AREA AS HOSTILE: A SAFE FORCED LANDING CANNOT BE ACCOMPLISHED BECAUSE THE SURFACE IS INADEQUATE. THE HELICOPTER OCCUPANTS CANNOT BE ADEQUATELY PROTECTED FROM THE ELEMENTS. SEARCH AND RESCUE RESPONSE/CAPABILITY ARE NOT PROVIDED CONSISTENT WITH ANTICIPATED EXPOSURE.

valid to:
PERM




ICAO
BGGH (NUUK)

FIR
BGGL

Notam_id:
BGB0786/18

valid from:
1810011932

E) BGGH AFIS FREQ 119.100 MHZ NO COVERAGE IN SECTOR BETWEEN 060 DEG MAG AND 210 DEG MAG BELOW FL100.

valid to:
1901311900EST


Replacing:
BGB0781/18

ICAO
BGGH (NUUK)

FIR
BGGL

Notam_id:
BGB0930/17

valid from:
1712181907

E) ERROR IN CHART FOR RNAV (GNSS) APPROACH RWY 23. WITH REF AIP GREENLAND AD 2-BGGH RNAV (GNSS) RWY 23-1. NEW OCA(H) LNAV/VNAV CLIMB 2.5 PERCENT CAT A TO READ 1310 (1029) INSTEAD OF 1230. NEW OCA(H) LNAV/VNAV CLIMB 2.5 PERCENT CAT B TO READ 1340 (1059) INSTEAD OF 1250. NEW OCA(H) LNAV/VNAV CLIMB 5.0 PERCENT CAT A TO READ 1300 (1019) INSTEAD OF 1070. NEW OCA(H) LNAV/VNAV CLIMB 5.0 PERCENT CAT B TO READ 1320 (1039) INSTEAD OF 1110. NEW OCA(H) LNAV CLIMB 5.0 PERCENT CAT A TO READ 1150 (869) IN-STEAD OF 1130. NEW OCA(H) LNAV CLIMB 5.0 PERCENT CAT B TO READ 1240 (959) INSTEAD OF 1230.

valid to:
PERM




ICAO
BGGH (NUUK)

FIR
BGGL

Notam_id:
BGB0808/18

valid from:
1810111130

E) CRANE RAISED AT PSN 641124N0514021W (AIR GREENLAND HANGAR AREA) TOP 82FT AGL

valid to:
1812201900EST




ICAO
BGSF (KANGERLUSSUAQ)

FIR
BGGL

Notam_id:
BGA0624/18

valid from:
1812031748

E) TWY D CLOSED DUE ICE.

valid to:
1812311900EST


Replacing:
BGA0616/18

ICAO
BGSF (KANGERLUSSUAQ)

FIR
BGGL

Notam_id:
BGA0623/18

valid from:
1812031747

E) APRON WEST CLOSED DUE TO ICE.

valid to:
1812311900EST


Replacing:
BGA0615/18

ICAO
BGSF (KANGERLUSSUAQ)

FIR
BGGL

Notam_id:
BGA0634/18

valid from:
1901310000

E) TRIGGER NOTAM - PERM AIP AIRAC AMDT 01/19 WEF 31 JAN 2019. E-MAIL CHANGED.

valid to:
1902132359




ICAO
BGSF (KANGERLUSSUAQ)

FIR
BGGL

Notam_id:
BGA0445/18

valid from:
1809131554

E) BGSF FBO E-MAIL ADDRESS: BGSF(AT)MIT.GL REF AIP GRL/AD 2 - BGSF, GEN 3.3 - 2 AND GEN 3.4 - 3.

valid to:
PERM





Copyright Naviair   2003-2016